sensor_id;sensor_type;location;lat;lon;timestamp;P1;durP1;ratioP1;P2;durP2;ratioP2
17953;SDS011;9102;53.548;9.926;2023-07-28T00:01:56;13.90;;;10.02;;
17953;SDS011;9102;53.548;9.926;2023-07-28T00:04:22;13.57;;;9.85;;
17953;SDS011;9102;53.548;9.926;2023-07-28T00:06:50;11.13;;;8.82;;
17953;SDS011;9102;53.548;9.926;2023-07-28T00:09:18;12.43;;;10.20;;
17953;SDS011;9102;53.548;9.926;2023-07-28T00:11:44;11.25;;;9.02;;
17953;SDS011;9102;53.548;9.926;2023-07-28T00:14:11;10.25;;;8.93;;
17953;SDS011;9102;53.548;9.926;2023-07-28T00:16:39;11.88;;;9.40;;
17953;SDS011;9102;53.548;9.926;2023-07-28T00:19:06;10.38;;;8.15;;
17953;SDS011;9102;53.548;9.926;2023-07-28T00:21:33;10.77;;;8.93;;
17953;SDS011;9102;53.548;9.926;2023-07-28T00:23:59;13.13;;;9.55;;
17953;SDS011;9102;53.548;9.926;2023-07-28T00:26:28;12.57;;;9.27;;
17953;SDS011;9102;53.548;9.926;2023-07-28T00:28:54;10.90;;;8.73;;
17953;SDS011;9102;53.548;9.926;2023-07-28T00:31:23;13.77;;;10.70;;
17953;SDS011;9102;53.548;9.926;2023-07-28T00:33:50;13.02;;;10.85;;
17953;SDS011;9102;53.548;9.926;2023-07-28T00:36:16;12.70;;;9.60;;
17953;SDS011;9102;53.548;9.926;2023-07-28T00:38:43;11.77;;;9.75;;
17953;SDS011;9102;53.548;9.926;2023-07-28T00:41:10;11.10;;;8.73;;
17953;SDS011;9102;53.548;9.926;2023-07-28T00:43:38;23.10;;;13.18;;
17953;SDS011;9102;53.548;9.926;2023-07-28T00:46:05;14.25;;;11.60;;
17953;SDS011;9102;53.548;9.926;2023-07-28T00:48:32;12.18;;;9.52;;
17953;SDS011;9102;53.548;9.926;2023-07-28T00:50:59;12.85;;;10.07;;
17953;SDS011;9102;53.548;9.926;2023-07-28T00:53:26;12.10;;;9.50;;
17953;SDS011;9102;53.548;9.926;2023-07-28T00:55:53;11.90;;;8.73;;
17953;SDS011;9102;53.548;9.926;2023-07-28T00:58:21;12.20;;;9.05;;
17953;SDS011;9102;53.548;9.926;2023-07-28T01:00:49;14.50;;;9.23;;
17953;SDS011;9102;53.548;9.926;2023-07-28T01:03:17;12.52;;;10.07;;
17953;SDS011;9102;53.548;9.926;2023-07-28T01:05:48;11.27;;;8.73;;
17953;SDS011;9102;53.548;9.926;2023-07-28T01:08:23;10.65;;;8.52;;
17953;SDS011;9102;53.548;9.926;2023-07-28T01:10:54;13.50;;;9.50;;
17953;SDS011;9102;53.548;9.926;2023-07-28T01:13:21;12.38;;;8.93;;
17953;SDS011;9102;53.548;9.926;2023-07-28T01:15:49;11.90;;;8.85;;
17953;SDS011;9102;53.548;9.926;2023-07-28T01:18:16;12.38;;;9.00;;
17953;SDS011;9102;53.548;9.926;2023-07-28T01:20:43;10.70;;;7.93;;
17953;SDS011;9102;53.548;9.926;2023-07-28T01:23:14;12.50;;;9.98;;
17953;SDS011;9102;53.548;9.926;2023-07-28T01:25:49;10.52;;;8.15;;
17953;SDS011;9102;53.548;9.926;2023-07-28T01:28:26;9.18;;;8.13;;
17953;SDS011;9102;53.548;9.926;2023-07-28T01:30:54;13.35;;;9.15;;
17953;SDS011;9102;53.548;9.926;2023-07-28T01:33:21;10.15;;;8.05;;
17953;SDS011;9102;53.548;9.926;2023-07-28T01:35:47;10.13;;;8.00;;
17953;SDS011;9102;53.548;9.926;2023-07-28T01:38:14;15.25;;;8.48;;
17953;SDS011;9102;53.548;9.926;2023-07-28T01:40:41;14.20;;;9.25;;
17953;SDS011;9102;53.548;9.926;2023-07-28T01:43:08;10.27;;;7.82;;
17953;SDS011;9102;53.548;9.926;2023-07-28T01:45:36;12.23;;;8.85;;
17953;SDS011;9102;53.548;9.926;2023-07-28T01:48:03;12.73;;;8.80;;
17953;SDS011;9102;53.548;9.926;2023-07-28T01:50:30;12.65;;;8.43;;
17953;SDS011;9102;53.548;9.926;2023-07-28T01:52:57;9.77;;;7.55;;
17953;SDS011;9102;53.548;9.926;2023-07-28T01:55:24;8.82;;;7.00;;
17953;SDS011;9102;53.548;9.926;2023-07-28T01:57:54;12.40;;;8.55;;
17953;SDS011;9102;53.548;9.926;2023-07-28T02:00:23;9.57;;;7.35;;
17953;SDS011;9102;53.548;9.926;2023-07-28T02:02:52;9.85;;;6.85;;
17953;SDS011;9102;53.548;9.926;2023-07-28T02:05:20;10.25;;;7.88;;
17953;SDS011;9102;53.548;9.926;2023-07-28T02:07:47;9.98;;;7.30;;
17953;SDS011;9102;53.548;9.926;2023-07-28T02:10:13;9.23;;;7.22;;
17953;SDS011;9102;53.548;9.926;2023-07-28T02:12:40;16.55;;;9.63;;
17953;SDS011;9102;53.548;9.926;2023-07-28T02:15:07;16.25;;;10.25;;
17953;SDS011;9102;53.548;9.926;2023-07-28T02:17:34;13.43;;;9.05;;
17953;SDS011;9102;53.548;9.926;2023-07-28T02:20:03;18.17;;;10.73;;
17953;SDS011;9102;53.548;9.926;2023-07-28T02:22:30;12.00;;;8.43;;
17953;SDS011;9102;53.548;9.926;2023-07-28T02:24:57;14.88;;;9.50;;
17953;SDS011;9102;53.548;9.926;2023-07-28T02:27:26;11.93;;;7.93;;
17953;SDS011;9102;53.548;9.926;2023-07-28T02:29:53;21.17;;;11.95;;
17953;SDS011;9102;53.548;9.926;2023-07-28T02:32:20;15.85;;;10.82;;
17953;SDS011;9102;53.548;9.926;2023-07-28T02:34:47;18.38;;;11.02;;
17953;SDS011;9102;53.548;9.926;2023-07-28T02:37:15;17.33;;;10.75;;
17953;SDS011;9102;53.548;9.926;2023-07-28T02:39:42;18.23;;;10.40;;
17953;SDS011;9102;53.548;9.926;2023-07-28T02:42:09;19.25;;;10.80;;
17953;SDS011;9102;53.548;9.926;2023-07-28T02:44:36;20.92;;;11.40;;
17953;SDS011;9102;53.548;9.926;2023-07-28T02:47:01;17.83;;;9.82;;
17953;SDS011;9102;53.548;9.926;2023-07-28T02:49:28;15.75;;;9.13;;
17953;SDS011;9102;53.548;9.926;2023-07-28T02:51:55;14.50;;;9.25;;
17953;SDS011;9102;53.548;9.926;2023-07-28T02:54:23;18.50;;;9.23;;
17953;SDS011;9102;53.548;9.926;2023-07-28T02:56:50;13.32;;;8.65;;
17953;SDS011;9102;53.548;9.926;2023-07-28T02:59:17;16.23;;;9.52;;
17953;SDS011;9102;53.548;9.926;2023-07-28T03:01:44;14.43;;;9.60;;
17953;SDS011;9102;53.548;9.926;2023-07-28T03:04:10;16.58;;;9.80;;
17953;SDS011;9102;53.548;9.926;2023-07-28T03:06:37;19.05;;;10.48;;
17953;SDS011;9102;53.548;9.926;2023-07-28T03:09:04;15.23;;;9.35;;
17953;SDS011;9102;53.548;9.926;2023-07-28T03:11:32;17.05;;;10.20;;
17953;SDS011;9102;53.548;9.926;2023-07-28T03:13:59;18.95;;;10.55;;
17953;SDS011;9102;53.548;9.926;2023-07-28T03:16:26;22.02;;;11.32;;
17953;SDS011;9102;53.548;9.926;2023-07-28T03:18:53;22.85;;;12.13;;
17953;SDS011;9102;53.548;9.926;2023-07-28T03:21:19;19.27;;;10.95;;
17953;SDS011;9102;53.548;9.926;2023-07-28T03:23:46;22.08;;;12.15;;
17953;SDS011;9102;53.548;9.926;2023-07-28T03:26:13;24.15;;;13.18;;
17953;SDS011;9102;53.548;9.926;2023-07-28T03:28:41;17.00;;;11.13;;
17953;SDS011;9102;53.548;9.926;2023-07-28T03:31:08;18.52;;;10.88;;
17953;SDS011;9102;53.548;9.926;2023-07-28T03:33:35;21.20;;;10.60;;
17953;SDS011;9102;53.548;9.926;2023-07-28T03:36:02;16.05;;;9.63;;
17953;SDS011;9102;53.548;9.926;2023-07-28T03:38:28;22.83;;;11.63;;
17953;SDS011;9102;53.548;9.926;2023-07-28T03:40:55;18.88;;;10.80;;
17953;SDS011;9102;53.548;9.926;2023-07-28T03:43:22;15.73;;;10.05;;
17953;SDS011;9102;53.548;9.926;2023-07-28T03:45:50;16.40;;;10.20;;
17953;SDS011;9102;53.548;9.926;2023-07-28T03:48:17;20.55;;;11.25;;
17953;SDS011;9102;53.548;9.926;2023-07-28T03:50:44;17.05;;;10.93;;
17953;SDS011;9102;53.548;9.926;2023-07-28T03:53:11;17.85;;;10.48;;
17953;SDS011;9102;53.548;9.926;2023-07-28T03:55:37;17.42;;;11.40;;
17953;SDS011;9102;53.548;9.926;2023-07-28T03:58:04;18.02;;;11.15;;
17953;SDS011;9102;53.548;9.926;2023-07-28T04:00:31;15.20;;;10.48;;
17953;SDS011;9102;53.548;9.926;2023-07-28T04:02:59;19.90;;;11.63;;
17953;SDS011;9102;53.548;9.926;2023-07-28T04:05:26;17.45;;;11.25;;
17953;SDS011;9102;53.548;9.926;2023-07-28T04:07:52;14.75;;;10.55;;
17953;SDS011;9102;53.548;9.926;2023-07-28T04:10:19;18.35;;;10.95;;
17953;SDS011;9102;53.548;9.926;2023-07-28T04:12:47;14.70;;;9.63;;
17953;SDS011;9102;53.548;9.926;2023-07-28T04:15:13;19.35;;;11.35;;
17953;SDS011;9102;53.548;9.926;2023-07-28T04:17:40;12.27;;;9.25;;
17953;SDS011;9102;53.548;9.926;2023-07-28T04:20:09;14.45;;;9.48;;
17953;SDS011;9102;53.548;9.926;2023-07-28T04:22:36;15.43;;;10.30;;
17953;SDS011;9102;53.548;9.926;2023-07-28T04:25:03;12.30;;;9.70;;
17953;SDS011;9102;53.548;9.926;2023-07-28T04:27:30;14.85;;;10.77;;
17953;SDS011;9102;53.548;9.926;2023-07-28T04:29:57;14.57;;;10.40;;
17953;SDS011;9102;53.548;9.926;2023-07-28T04:32:24;15.65;;;10.60;;
17953;SDS011;9102;53.548;9.926;2023-07-28T04:34:53;16.05;;;10.98;;
17953;SDS011;9102;53.548;9.926;2023-07-28T04:37:21;14.85;;;10.55;;
17953;SDS011;9102;53.548;9.926;2023-07-28T04:39:47;16.35;;;10.90;;
17953;SDS011;9102;53.548;9.926;2023-07-28T04:42:15;16.20;;;11.02;;
17953;SDS011;9102;53.548;9.926;2023-07-28T04:44:42;18.10;;;11.07;;
17953;SDS011;9102;53.548;9.926;2023-07-28T04:47:10;15.48;;;10.20;;
17953;SDS011;9102;53.548;9.926;2023-07-28T04:49:37;12.90;;;9.45;;
17953;SDS011;9102;53.548;9.926;2023-07-28T04:52:05;17.42;;;10.68;;
17953;SDS011;9102;53.548;9.926;2023-07-28T04:54:34;13.43;;;10.10;;
17953;SDS011;9102;53.548;9.926;2023-07-28T04:57:01;16.60;;;11.40;;
17953;SDS011;9102;53.548;9.926;2023-07-28T04:59:28;17.67;;;11.07;;
17953;SDS011;9102;53.548;9.926;2023-07-28T05:01:55;11.23;;;9.30;;
17953;SDS011;9102;53.548;9.926;2023-07-28T05:04:22;13.23;;;9.77;;
17953;SDS011;9102;53.548;9.926;2023-07-28T05:06:49;14.93;;;10.88;;
17953;SDS011;9102;53.548;9.926;2023-07-28T05:09:16;16.58;;;12.25;;
17953;SDS011;9102;53.548;9.926;2023-07-28T05:11:44;12.15;;;9.90;;
17953;SDS011;9102;53.548;9.926;2023-07-28T05:14:11;12.98;;;10.20;;
17953;SDS011;9102;53.548;9.926;2023-07-28T05:16:37;14.57;;;11.73;;
17953;SDS011;9102;53.548;9.926;2023-07-28T05:19:05;14.07;;;10.95;;
17953;SDS011;9102;53.548;9.926;2023-07-28T05:21:32;12.18;;;10.13;;
17953;SDS011;9102;53.548;9.926;2023-07-28T05:23:59;13.93;;;11.13;;
17953;SDS011;9102;53.548;9.926;2023-07-28T05:26:26;21.10;;;17.17;;
17953;SDS011;9102;53.548;9.926;2023-07-28T05:28:54;13.52;;;11.25;;
17953;SDS011;9102;53.548;9.926;2023-07-28T05:31:21;12.48;;;10.57;;
17953;SDS011;9102;53.548;9.926;2023-07-28T05:33:48;14.77;;;11.32;;
17953;SDS011;9102;53.548;9.926;2023-07-28T05:36:14;10.85;;;9.43;;
17953;SDS011;9102;53.548;9.926;2023-07-28T05:38:41;10.85;;;8.85;;
17953;SDS011;9102;53.548;9.926;2023-07-28T05:41:08;10.30;;;9.02;;
17953;SDS011;9102;53.548;9.926;2023-07-28T05:43:34;9.57;;;8.57;;
17953;SDS011;9102;53.548;9.926;2023-07-28T05:46:02;7.25;;;6.55;;
17953;SDS011;9102;53.548;9.926;2023-07-28T05:48:29;9.85;;;8.30;;
17953;SDS011;9102;53.548;9.926;2023-07-28T05:50:56;7.45;;;6.68;;
17953;SDS011;9102;53.548;9.926;2023-07-28T05:53:23;8.25;;;7.35;;
17953;SDS011;9102;53.548;9.926;2023-07-28T05:55:50;8.18;;;7.38;;
17953;SDS011;9102;53.548;9.926;2023-07-28T05:58:16;5.35;;;4.85;;
17953;SDS011;9102;53.548;9.926;2023-07-28T06:00:43;6.40;;;5.57;;
17953;SDS011;9102;53.548;9.926;2023-07-28T06:03:11;7.30;;;6.38;;
17953;SDS011;9102;53.548;9.926;2023-07-28T06:05:38;8.80;;;6.28;;
17953;SDS011;9102;53.548;9.926;2023-07-28T06:08:06;6.70;;;5.97;;
17953;SDS011;9102;53.548;9.926;2023-07-28T06:10:34;6.13;;;5.53;;
17953;SDS011;9102;53.548;9.926;2023-07-28T06:13:01;5.47;;;4.95;;
17953;SDS011;9102;53.548;9.926;2023-07-28T06:15:27;5.18;;;4.65;;
17953;SDS011;9102;53.548;9.926;2023-07-28T06:17:54;5.28;;;4.38;;
17953;SDS011;9102;53.548;9.926;2023-07-28T06:20:22;4.07;;;3.25;;
17953;SDS011;9102;53.548;9.926;2023-07-28T06:22:49;3.33;;;2.97;;
17953;SDS011;9102;53.548;9.926;2023-07-28T06:25:16;3.50;;;3.20;;
17953;SDS011;9102;53.548;9.926;2023-07-28T06:27:43;4.18;;;3.78;;
17953;SDS011;9102;53.548;9.926;2023-07-28T06:30:10;4.13;;;3.42;;
17953;SDS011;9102;53.548;9.926;2023-07-28T06:32:37;5.07;;;3.70;;
17953;SDS011;9102;53.548;9.926;2023-07-28T06:35:04;3.20;;;2.90;;
17953;SDS011;9102;53.548;9.926;2023-07-28T06:37:35;2.60;;;2.40;;
17953;SDS011;9102;53.548;9.926;2023-07-28T06:40:03;2.60;;;2.40;;
17953;SDS011;9102;53.548;9.926;2023-07-28T06:42:33;3.25;;;2.85;;
17953;SDS011;9102;53.548;9.926;2023-07-28T06:45:00;3.13;;;2.80;;
17953;SDS011;9102;53.548;9.926;2023-07-28T06:47:27;3.90;;;3.50;;
17953;SDS011;9102;53.548;9.926;2023-07-28T06:49:54;3.55;;;3.25;;
17953;SDS011;9102;53.548;9.926;2023-07-28T06:52:21;2.92;;;2.70;;
17953;SDS011;9102;53.548;9.926;2023-07-28T06:54:49;3.10;;;2.80;;
17953;SDS011;9102;53.548;9.926;2023-07-28T06:57:16;7.00;;;2.83;;
17953;SDS011;9102;53.548;9.926;2023-07-28T06:59:43;3.15;;;2.30;;
17953;SDS011;9102;53.548;9.926;2023-07-28T07:02:10;2.50;;;2.25;;
17953;SDS011;9102;53.548;9.926;2023-07-28T07:04:36;2.10;;;1.88;;
17953;SDS011;9102;53.548;9.926;2023-07-28T07:07:03;2.63;;;2.00;;
17953;SDS011;9102;53.548;9.926;2023-07-28T07:09:30;2.90;;;2.30;;
17953;SDS011;9102;53.548;9.926;2023-07-28T07:11:59;2.42;;;2.00;;
17953;SDS011;9102;53.548;9.926;2023-07-28T07:14:26;2.38;;;2.05;;
17953;SDS011;9102;53.548;9.926;2023-07-28T07:16:52;3.42;;;2.67;;
17953;SDS011;9102;53.548;9.926;2023-07-28T07:19:19;2.83;;;2.53;;
17953;SDS011;9102;53.548;9.926;2023-07-28T07:21:46;2.33;;;2.13;;
17953;SDS011;9102;53.548;9.926;2023-07-28T07:24:14;3.10;;;2.72;;
17953;SDS011;9102;53.548;9.926;2023-07-28T07:26:41;2.20;;;2.00;;
17953;SDS011;9102;53.548;9.926;2023-07-28T07:29:09;1.80;;;1.50;;
17953;SDS011;9102;53.548;9.926;2023-07-28T07:31:36;1.98;;;1.80;;
17953;SDS011;9102;53.548;9.926;2023-07-28T07:34:03;2.20;;;2.00;;
17953;SDS011;9102;53.548;9.926;2023-07-28T07:36:30;2.40;;;2.20;;
17953;SDS011;9102;53.548;9.926;2023-07-28T07:38:58;2.47;;;2.25;;
17953;SDS011;9102;53.548;9.926;2023-07-28T07:41:25;2.92;;;2.70;;
17953;SDS011;9102;53.548;9.926;2023-07-28T07:43:54;3.50;;;3.20;;
17953;SDS011;9102;53.548;9.926;2023-07-28T07:46:23;3.88;;;3.50;;
17953;SDS011;9102;53.548;9.926;2023-07-28T07:48:50;3.17;;;2.88;;
17953;SDS011;9102;53.548;9.926;2023-07-28T07:51:17;3.83;;;3.42;;
17953;SDS011;9102;53.548;9.926;2023-07-28T07:53:44;3.95;;;2.95;;
17953;SDS011;9102;53.548;9.926;2023-07-28T07:56:11;2.75;;;2.55;;
17953;SDS011;9102;53.548;9.926;2023-07-28T07:58:40;6.03;;;2.60;;
17953;SDS011;9102;53.548;9.926;2023-07-28T08:01:08;3.47;;;2.88;;
17953;SDS011;9102;53.548;9.926;2023-07-28T08:03:36;4.32;;;2.42;;
17953;SDS011;9102;53.548;9.926;2023-07-28T08:06:03;3.45;;;2.13;;
17953;SDS011;9102;53.548;9.926;2023-07-28T08:08:30;2.95;;;2.35;;
17953;SDS011;9102;53.548;9.926;2023-07-28T08:10:57;2.90;;;2.20;;
17953;SDS011;9102;53.548;9.926;2023-07-28T08:13:25;2.60;;;2.40;;
17953;SDS011;9102;53.548;9.926;2023-07-28T08:15:53;2.50;;;2.30;;
17953;SDS011;9102;53.548;9.926;2023-07-28T08:18:20;2.72;;;2.28;;
17953;SDS011;9102;53.548;9.926;2023-07-28T08:20:49;2.72;;;2.30;;
17953;SDS011;9102;53.548;9.926;2023-07-28T08:23:16;2.33;;;2.03;;
17953;SDS011;9102;53.548;9.926;2023-07-28T08:25:42;5.43;;;2.85;;
17953;SDS011;9102;53.548;9.926;2023-07-28T08:28:09;11.50;;;2.67;;
17953;SDS011;9102;53.548;9.926;2023-07-28T08:30:36;1.83;;;1.60;;
17953;SDS011;9102;53.548;9.926;2023-07-28T08:33:03;2.50;;;1.65;;
17953;SDS011;9102;53.548;9.926;2023-07-28T08:35:30;2.25;;;2.05;;
17953;SDS011;9102;53.548;9.926;2023-07-28T08:37:58;3.25;;;1.90;;
17953;SDS011;9102;53.548;9.926;2023-07-28T08:40:25;2.58;;;1.38;;
17953;SDS011;9102;53.548;9.926;2023-07-28T08:42:53;2.85;;;1.52;;
17953;SDS011;9102;53.548;9.926;2023-07-28T08:45:20;4.82;;;2.53;;
17953;SDS011;9102;53.548;9.926;2023-07-28T08:47:49;4.18;;;1.73;;
17953;SDS011;9102;53.548;9.926;2023-07-28T08:50:16;9.38;;;2.55;;
17953;SDS011;9102;53.548;9.926;2023-07-28T08:52:43;8.05;;;2.72;;
17953;SDS011;9102;53.548;9.926;2023-07-28T08:55:12;5.93;;;2.10;;
17953;SDS011;9102;53.548;9.926;2023-07-28T08:57:39;2.50;;;2.05;;
17953;SDS011;9102;53.548;9.926;2023-07-28T09:00:07;4.88;;;1.90;;
17953;SDS011;9102;53.548;9.926;2023-07-28T09:02:36;4.18;;;2.22;;
17953;SDS011;9102;53.548;9.926;2023-07-28T09:05:03;2.13;;;1.90;;
17953;SDS011;9102;53.548;9.926;2023-07-28T09:07:33;1.65;;;1.55;;
17953;SDS011;9102;53.548;9.926;2023-07-28T09:10:01;1.73;;;1.45;;
17953;SDS011;9102;53.548;9.926;2023-07-28T09:12:32;2.85;;;1.63;;
17953;SDS011;9102;53.548;9.926;2023-07-28T09:14:59;1.63;;;1.33;;
17953;SDS011;9102;53.548;9.926;2023-07-28T09:17:26;1.55;;;1.20;;
17953;SDS011;9102;53.548;9.926;2023-07-28T09:19:53;1.60;;;1.50;;
17953;SDS011;9102;53.548;9.926;2023-07-28T09:22:21;5.35;;;1.60;;
17953;SDS011;9102;53.548;9.926;2023-07-28T09:24:49;3.65;;;1.92;;
17953;SDS011;9102;53.548;9.926;2023-07-28T09:27:20;2.13;;;1.67;;
17953;SDS011;9102;53.548;9.926;2023-07-28T09:29:50;2.53;;;2.10;;
17953;SDS011;9102;53.548;9.926;2023-07-28T09:32:25;2.53;;;2.03;;
17953;SDS011;9102;53.548;9.926;2023-07-28T09:35:05;2.85;;;2.58;;
17953;SDS011;9102;53.548;9.926;2023-07-28T09:37:36;2.58;;;2.10;;
17953;SDS011;9102;53.548;9.926;2023-07-28T09:40:05;3.80;;;2.10;;
17953;SDS011;9102;53.548;9.926;2023-07-28T09:42:36;3.28;;;2.10;;
17953;SDS011;9102;53.548;9.926;2023-07-28T09:45:06;3.92;;;2.47;;
17953;SDS011;9102;53.548;9.926;2023-07-28T09:47:34;2.88;;;2.20;;
17953;SDS011;9102;53.548;9.926;2023-07-28T09:50:02;3.05;;;2.00;;
17953;SDS011;9102;53.548;9.926;2023-07-28T09:52:33;4.30;;;2.35;;
17953;SDS011;9102;53.548;9.926;2023-07-28T09:55:03;9.27;;;2.70;;
17953;SDS011;9102;53.548;9.926;2023-07-28T09:57:33;2.25;;;1.67;;
17953;SDS011;9102;53.548;9.926;2023-07-28T10:00:03;2.67;;;2.38;;
17953;SDS011;9102;53.548;9.926;2023-07-28T10:02:34;1.77;;;1.55;;
17953;SDS011;9102;53.548;9.926;2023-07-28T10:05:02;6.57;;;2.13;;
17953;SDS011;9102;53.548;9.926;2023-07-28T10:07:30;2.75;;;2.13;;
17953;SDS011;9102;53.548;9.926;2023-07-28T10:09:59;3.45;;;2.30;;
17953;SDS011;9102;53.548;9.926;2023-07-28T10:12:26;2.88;;;2.13;;
17953;SDS011;9102;53.548;9.926;2023-07-28T10:14:59;5.57;;;2.88;;
17953;SDS011;9102;53.548;9.926;2023-07-28T10:17:34;3.25;;;2.45;;
17953;SDS011;9102;53.548;9.926;2023-07-28T10:20:10;2.70;;;2.45;;
17953;SDS011;9102;53.548;9.926;2023-07-28T10:23:03;3.05;;;2.70;;
17953;SDS011;9102;53.548;9.926;2023-07-28T10:25:34;4.10;;;2.40;;
17953;SDS011;9102;53.548;9.926;2023-07-28T10:28:02;4.63;;;2.70;;
17953;SDS011;9102;53.548;9.926;2023-07-28T10:30:36;5.43;;;2.70;;
17953;SDS011;9102;53.548;9.926;2023-07-28T10:33:06;2.55;;;2.10;;
17953;SDS011;9102;53.548;9.926;2023-07-28T10:35:34;3.85;;;2.35;;
17953;SDS011;9102;53.548;9.926;2023-07-28T10:41:08;5.30;;;2.60;;
17953;SDS011;9102;53.548;9.926;2023-07-28T10:43:39;4.60;;;2.45;;
17953;SDS011;9102;53.548;9.926;2023-07-28T10:46:09;3.92;;;2.03;;
17953;SDS011;9102;53.548;9.926;2023-07-28T10:48:42;2.08;;;1.70;;
17953;SDS011;9102;53.548;9.926;2023-07-28T10:51:11;3.50;;;1.77;;
17953;SDS011;9102;53.548;9.926;2023-07-28T10:53:54;2.13;;;1.70;;
17953;SDS011;9102;53.548;9.926;2023-07-28T10:56:22;3.05;;;1.88;;
17953;SDS011;9102;53.548;9.926;2023-07-28T10:58:57;4.30;;;1.95;;
17953;SDS011;9102;53.548;9.926;2023-07-28T11:01:30;6.15;;;1.75;;
17953;SDS011;9102;53.548;9.926;2023-07-28T11:04:06;2.53;;;1.40;;
17953;SDS011;9102;53.548;9.926;2023-07-28T11:06:37;3.92;;;2.05;;
17953;SDS011;9102;53.548;9.926;2023-07-28T11:09:05;2.92;;;1.50;;
17953;SDS011;9102;53.548;9.926;2023-07-28T11:11:33;3.45;;;2.83;;
17953;SDS011;9102;53.548;9.926;2023-07-28T11:14:01;3.40;;;2.30;;
17953;SDS011;9102;53.548;9.926;2023-07-28T11:16:28;2.80;;;1.70;;
17953;SDS011;9102;53.548;9.926;2023-07-28T11:18:55;1.58;;;1.40;;
17953;SDS011;9102;53.548;9.926;2023-07-28T11:21:27;1.98;;;1.60;;
17953;SDS011;9102;53.548;9.926;2023-07-28T11:23:54;2.70;;;1.45;;
17953;SDS011;9102;53.548;9.926;2023-07-28T11:26:21;2.22;;;1.52;;
17953;SDS011;9102;53.548;9.926;2023-07-28T11:28:48;2.45;;;1.35;;
17953;SDS011;9102;53.548;9.926;2023-07-28T11:31:16;4.05;;;2.00;;
17953;SDS011;9102;53.548;9.926;2023-07-28T11:33:42;2.50;;;1.35;;
17953;SDS011;9102;53.548;9.926;2023-07-28T11:36:09;1.75;;;1.08;;
17953;SDS011;9102;53.548;9.926;2023-07-28T11:38:38;1.75;;;1.10;;
17953;SDS011;9102;53.548;9.926;2023-07-28T11:41:05;1.40;;;1.30;;
17953;SDS011;9102;53.548;9.926;2023-07-28T11:43:32;2.08;;;1.25;;
17953;SDS011;9102;53.548;9.926;2023-07-28T11:46:00;3.40;;;1.58;;
17953;SDS011;9102;53.548;9.926;2023-07-28T11:48:29;1.45;;;1.35;;
17953;SDS011;9102;53.548;9.926;2023-07-28T11:50:57;2.10;;;1.05;;
17953;SDS011;9102;53.548;9.926;2023-07-28T11:53:25;1.50;;;1.30;;
17953;SDS011;9102;53.548;9.926;2023-07-28T11:55:54;1.27;;;1.10;;
17953;SDS011;9102;53.548;9.926;2023-07-28T11:58:21;1.25;;;1.15;;
17953;SDS011;9102;53.548;9.926;2023-07-28T12:00:51;1.52;;;1.10;;
17953;SDS011;9102;53.548;9.926;2023-07-28T12:03:18;0.90;;;0.90;;
17953;SDS011;9102;53.548;9.926;2023-07-28T12:05:58;3.15;;;2.00;;
17953;SDS011;9102;53.548;9.926;2023-07-28T12:08:34;1.35;;;1.20;;
17953;SDS011;9102;53.548;9.926;2023-07-28T12:11:03;2.00;;;1.25;;
17953;SDS011;9102;53.548;9.926;2023-07-28T12:13:30;0.82;;;0.80;;
17953;SDS011;9102;53.548;9.926;2023-07-28T12:15:56;1.30;;;1.00;;
17953;SDS011;9102;53.548;9.926;2023-07-28T12:18:27;0.93;;;0.80;;
17953;SDS011;9102;53.548;9.926;2023-07-28T12:20:56;1.65;;;1.42;;
17953;SDS011;9102;53.548;9.926;2023-07-28T12:23:25;2.35;;;1.45;;
17953;SDS011;9102;53.548;9.926;2023-07-28T12:25:52;1.17;;;1.00;;
17953;SDS011;9102;53.548;9.926;2023-07-28T12:28:21;1.17;;;1.08;;
17953;SDS011;9102;53.548;9.926;2023-07-28T12:30:49;0.93;;;0.93;;
17953;SDS011;9102;53.548;9.926;2023-07-28T12:33:17;1.40;;;1.30;;
17953;SDS011;9102;53.548;9.926;2023-07-28T12:35:44;1.08;;;0.80;;
17953;SDS011;9102;53.548;9.926;2023-07-28T12:38:11;1.85;;;1.08;;
17953;SDS011;9102;53.548;9.926;2023-07-28T12:40:38;0.88;;;0.88;;
17953;SDS011;9102;53.548;9.926;2023-07-28T12:43:04;0.90;;;0.80;;
17953;SDS011;9102;53.548;9.926;2023-07-28T12:45:34;1.35;;;0.80;;
17953;SDS011;9102;53.548;9.926;2023-07-28T12:48:01;1.60;;;1.02;;
17953;SDS011;9102;53.548;9.926;2023-07-28T12:50:28;1.15;;;0.93;;
17953;SDS011;9102;53.548;9.926;2023-07-28T12:52:55;1.00;;;0.98;;
17953;SDS011;9102;53.548;9.926;2023-07-28T12:55:22;1.30;;;1.20;;
17953;SDS011;9102;53.548;9.926;2023-07-28T12:57:51;1.30;;;1.20;;
17953;SDS011;9102;53.548;9.926;2023-07-28T13:00:18;1.45;;;1.15;;
17953;SDS011;9102;53.548;9.926;2023-07-28T13:02:48;2.38;;;0.95;;
17953;SDS011;9102;53.548;9.926;2023-07-28T13:05:14;1.67;;;1.17;;
17953;SDS011;9102;53.548;9.926;2023-07-28T13:07:42;3.05;;;1.50;;
17953;SDS011;9102;53.548;9.926;2023-07-28T13:10:09;6.70;;;2.10;;
17953;SDS011;9102;53.548;9.926;2023-07-28T13:12:37;1.60;;;1.02;;
17953;SDS011;9102;53.548;9.926;2023-07-28T13:15:04;1.10;;;1.00;;
17953;SDS011;9102;53.548;9.926;2023-07-28T13:17:32;1.00;;;0.90;;
17953;SDS011;9102;53.548;9.926;2023-07-28T13:20:00;1.60;;;1.00;;
17953;SDS011;9102;53.548;9.926;2023-07-28T13:22:28;2.00;;;1.30;;
17953;SDS011;9102;53.548;9.926;2023-07-28T13:24:54;1.60;;;1.40;;
17953;SDS011;9102;53.548;9.926;2023-07-28T13:27:21;1.17;;;1.08;;
17953;SDS011;9102;53.548;9.926;2023-07-28T13:29:48;2.50;;;1.13;;
17953;SDS011;9102;53.548;9.926;2023-07-28T13:32:16;1.40;;;1.13;;
17953;SDS011;9102;53.548;9.926;2023-07-28T13:34:44;2.20;;;1.13;;
17953;SDS011;9102;53.548;9.926;2023-07-28T13:37:12;1.30;;;1.20;;
17953;SDS011;9102;53.548;9.926;2023-07-28T13:39:39;6.35;;;1.80;;
17953;SDS011;9102;53.548;9.926;2023-07-28T13:42:07;1.65;;;1.10;;
17953;SDS011;9102;53.548;9.926;2023-07-28T13:44:34;2.50;;;1.42;;
17953;SDS011;9102;53.548;9.926;2023-07-28T13:47:00;1.30;;;1.20;;
17953;SDS011;9102;53.548;9.926;2023-07-28T13:49:27;1.92;;;1.38;;
17953;SDS011;9102;53.548;9.926;2023-07-28T13:51:55;2.38;;;0.90;;
17953;SDS011;9102;53.548;9.926;2023-07-28T13:54:23;3.63;;;1.20;;
17953;SDS011;9102;53.548;9.926;2023-07-28T13:56:50;1.02;;;0.98;;
17953;SDS011;9102;53.548;9.926;2023-07-28T13:59:17;1.52;;;1.00;;
17953;SDS011;9102;53.548;9.926;2023-07-28T14:01:44;1.27;;;0.90;;
17953;SDS011;9102;53.548;9.926;2023-07-28T14:04:10;1.10;;;1.00;;
17953;SDS011;9102;53.548;9.926;2023-07-28T14:06:39;1.35;;;1.15;;
17953;SDS011;9102;53.548;9.926;2023-07-28T14:09:05;1.30;;;1.10;;
17953;SDS011;9102;53.548;9.926;2023-07-28T14:11:34;2.08;;;1.20;;
17953;SDS011;9102;53.548;9.926;2023-07-28T14:14:01;1.20;;;1.02;;
17953;SDS011;9102;53.548;9.926;2023-07-28T14:16:28;1.38;;;1.00;;
17953;SDS011;9102;53.548;9.926;2023-07-28T14:18:55;1.17;;;0.90;;
17953;SDS011;9102;53.548;9.926;2023-07-28T14:21:22;1.33;;;1.00;;
17953;SDS011;9102;53.548;9.926;2023-07-28T14:23:49;0.88;;;0.80;;
17953;SDS011;9102;53.548;9.926;2023-07-28T14:26:14;1.00;;;0.90;;
17953;SDS011;9102;53.548;9.926;2023-07-28T14:28:43;1.23;;;1.00;;
17953;SDS011;9102;53.548;9.926;2023-07-28T14:31:10;1.42;;;1.10;;
17953;SDS011;9102;53.548;9.926;2023-07-28T14:33:37;2.55;;;0.90;;
17953;SDS011;9102;53.548;9.926;2023-07-28T14:36:04;1.45;;;0.82;;
17953;SDS011;9102;53.548;9.926;2023-07-28T14:38:31;1.45;;;1.00;;
17953;SDS011;9102;53.548;9.926;2023-07-28T14:40:57;1.98;;;0.90;;
17953;SDS011;9102;53.548;9.926;2023-07-28T14:43:24;1.58;;;0.85;;
17953;SDS011;9102;53.548;9.926;2023-07-28T14:45:52;1.75;;;0.90;;
17953;SDS011;9102;53.548;9.926;2023-07-28T14:48:19;3.63;;;0.85;;
17953;SDS011;9102;53.548;9.926;2023-07-28T14:50:46;2.38;;;1.00;;
17953;SDS011;9102;53.548;9.926;2023-07-28T14:53:29;2.08;;;1.02;;
17953;SDS011;9102;53.548;9.926;2023-07-28T14:55:57;1.00;;;0.57;;
17953;SDS011;9102;53.548;9.926;2023-07-28T14:58:25;0.70;;;0.60;;
17953;SDS011;9102;53.548;9.926;2023-07-28T15:00:54;1.40;;;0.80;;